sensor_id;sensor_type;location;lat;lon;timestamp;P1;durP1;ratioP1;P2;durP2;ratioP2
3819;SDS011;1925;51.356;9.530;2022-08-01T00:01:54;3.33;;;2.37;;
3819;SDS011;1925;51.356;9.530;2022-08-01T00:04:20;3.70;;;2.87;;
3819;SDS011;1925;51.356;9.530;2022-08-01T00:06:46;4.07;;;2.97;;
3819;SDS011;1925;51.356;9.530;2022-08-01T00:09:12;3.00;;;2.63;;
3819;SDS011;1925;51.356;9.530;2022-08-01T00:11:38;3.30;;;3.00;;
3819;SDS011;1925;51.356;9.530;2022-08-01T00:14:04;2.70;;;2.50;;
3819;SDS011;1925;51.356;9.530;2022-08-01T00:16:30;4.33;;;2.80;;
3819;SDS011;1925;51.356;9.530;2022-08-01T00:18:56;3.30;;;3.00;;
3819;SDS011;1925;51.356;9.530;2022-08-01T00:21:22;3.00;;;2.70;;
3819;SDS011;1925;51.356;9.530;2022-08-01T00:23:48;3.93;;;3.47;;
3819;SDS011;1925;51.356;9.530;2022-08-01T00:26:14;3.93;;;3.53;;
3819;SDS011;1925;51.356;9.530;2022-08-01T00:28:40;5.77;;;3.13;;
3819;SDS011;1925;51.356;9.530;2022-08-01T00:31:07;4.90;;;3.17;;
3819;SDS011;1925;51.356;9.530;2022-08-01T00:33:33;3.87;;;3.13;;
3819;SDS011;1925;51.356;9.530;2022-08-01T00:35:59;4.27;;;3.10;;
3819;SDS011;1925;51.356;9.530;2022-08-01T00:38:25;4.60;;;3.50;;
3819;SDS011;1925;51.356;9.530;2022-08-01T00:40:51;3.90;;;3.50;;
3819;SDS011;1925;51.356;9.530;2022-08-01T00:43:17;3.50;;;3.20;;
3819;SDS011;1925;51.356;9.530;2022-08-01T00:45:43;3.80;;;3.50;;
3819;SDS011;1925;51.356;9.530;2022-08-01T00:48:09;3.73;;;3.10;;
3819;SDS011;1925;51.356;9.530;2022-08-01T00:50:35;3.93;;;3.60;;
3819;SDS011;1925;51.356;9.530;2022-08-01T00:53:01;3.20;;;2.90;;
3819;SDS011;1925;51.356;9.530;2022-08-01T00:55:27;4.70;;;3.73;;
3819;SDS011;1925;51.356;9.530;2022-08-01T00:57:54;3.30;;;3.00;;
3819;SDS011;1925;51.356;9.530;2022-08-01T01:00:20;3.93;;;3.60;;
3819;SDS011;1925;51.356;9.530;2022-08-01T01:02:47;3.30;;;3.00;;
3819;SDS011;1925;51.356;9.530;2022-08-01T01:05:13;3.80;;;3.50;;
3819;SDS011;1925;51.356;9.530;2022-08-01T01:07:44;4.60;;;3.20;;
3819;SDS011;1925;51.356;9.530;2022-08-01T01:10:17;5.00;;;3.70;;
3819;SDS011;1925;51.356;9.530;2022-08-01T01:12:55;4.60;;;3.70;;
3819;SDS011;1925;51.356;9.530;2022-08-01T01:18:04;3.60;;;3.30;;
3819;SDS011;1925;51.356;9.530;2022-08-01T01:20:43;6.03;;;3.47;;
3819;SDS011;1925;51.356;9.530;2022-08-01T01:23:33;3.43;;;3.20;;
3819;SDS011;1925;51.356;9.530;2022-08-01T01:28:40;4.40;;;3.90;;
3819;SDS011;1925;51.356;9.530;2022-08-01T01:31:09;4.10;;;3.67;;
3819;SDS011;1925;51.356;9.530;2022-08-01T01:33:36;3.37;;;3.00;;
3819;SDS011;1925;51.356;9.530;2022-08-01T01:36:05;5.20;;;3.97;;
3819;SDS011;1925;51.356;9.530;2022-08-01T01:38:34;3.23;;;3.00;;
3819;SDS011;1925;51.356;9.530;2022-08-01T01:41:02;5.10;;;3.47;;
3819;SDS011;1925;51.356;9.530;2022-08-01T01:43:28;3.70;;;3.40;;
3819;SDS011;1925;51.356;9.530;2022-08-01T01:45:55;3.63;;;3.30;;
3819;SDS011;1925;51.356;9.530;2022-08-01T01:48:21;3.30;;;3.00;;
3819;SDS011;1925;51.356;9.530;2022-08-01T01:50:48;3.40;;;3.20;;
3819;SDS011;1925;51.356;9.530;2022-08-01T01:53:16;3.83;;;3.53;;
3819;SDS011;1925;51.356;9.530;2022-08-01T01:55:44;3.33;;;3.03;;
3819;SDS011;1925;51.356;9.530;2022-08-01T01:58:11;3.80;;;3.23;;
3819;SDS011;1925;51.356;9.530;2022-08-01T02:00:39;4.60;;;3.57;;
3819;SDS011;1925;51.356;9.530;2022-08-01T02:03:06;3.50;;;3.30;;
3819;SDS011;1925;51.356;9.530;2022-08-01T02:05:33;3.50;;;3.20;;
3819;SDS011;1925;51.356;9.530;2022-08-01T02:08:00;4.50;;;4.10;;
3819;SDS011;1925;51.356;9.530;2022-08-01T02:10:27;4.20;;;3.70;;
3819;SDS011;1925;51.356;9.530;2022-08-01T02:12:54;3.20;;;3.00;;
3819;SDS011;1925;51.356;9.530;2022-08-01T02:15:20;3.97;;;3.67;;
3819;SDS011;1925;51.356;9.530;2022-08-01T02:17:48;3.97;;;3.70;;
3819;SDS011;1925;51.356;9.530;2022-08-01T02:20:15;9.50;;;4.23;;
3819;SDS011;1925;51.356;9.530;2022-08-01T02:22:52;5.13;;;4.73;;
3819;SDS011;1925;51.356;9.530;2022-08-01T02:25:22;4.70;;;4.30;;
3819;SDS011;1925;51.356;9.530;2022-08-01T02:27:52;4.13;;;3.83;;
3819;SDS011;1925;51.356;9.530;2022-08-01T02:30:20;5.07;;;4.07;;
3819;SDS011;1925;51.356;9.530;2022-08-01T02:32:49;5.40;;;4.80;;
3819;SDS011;1925;51.356;9.530;2022-08-01T02:35:20;4.93;;;4.50;;
3819;SDS011;1925;51.356;9.530;2022-08-01T02:37:49;5.33;;;4.83;;
3819;SDS011;1925;51.356;9.530;2022-08-01T02:40:15;6.93;;;6.07;;
3819;SDS011;1925;51.356;9.530;2022-08-01T02:42:43;6.60;;;6.00;;
3819;SDS011;1925;51.356;9.530;2022-08-01T02:45:09;7.37;;;5.50;;
3819;SDS011;1925;51.356;9.530;2022-08-01T02:47:37;7.17;;;5.23;;
3819;SDS011;1925;51.356;9.530;2022-08-01T02:50:04;6.50;;;4.90;;
3819;SDS011;1925;51.356;9.530;2022-08-01T02:52:30;5.47;;;5.07;;
3819;SDS011;1925;51.356;9.530;2022-08-01T02:54:56;8.33;;;6.47;;
3819;SDS011;1925;51.356;9.530;2022-08-01T02:57:23;9.23;;;6.27;;
3819;SDS011;1925;51.356;9.530;2022-08-01T02:59:50;7.87;;;5.83;;
3819;SDS011;1925;51.356;9.530;2022-08-01T03:02:17;7.97;;;6.13;;
3819;SDS011;1925;51.356;9.530;2022-08-01T03:04:44;6.97;;;6.37;;
3819;SDS011;1925;51.356;9.530;2022-08-01T03:07:11;6.53;;;5.97;;
3819;SDS011;1925;51.356;9.530;2022-08-01T03:09:42;7.73;;;6.87;;
3819;SDS011;1925;51.356;9.530;2022-08-01T03:12:18;6.63;;;5.93;;
3819;SDS011;1925;51.356;9.530;2022-08-01T03:14:45;7.37;;;6.77;;
3819;SDS011;1925;51.356;9.530;2022-08-01T03:17:12;7.80;;;7.00;;
3819;SDS011;1925;51.356;9.530;2022-08-01T03:19:38;10.63;;;6.70;;
3819;SDS011;1925;51.356;9.530;2022-08-01T03:22:08;7.83;;;7.03;;
3819;SDS011;1925;51.356;9.530;2022-08-01T03:24:36;7.50;;;6.90;;
3819;SDS011;1925;51.356;9.530;2022-08-01T03:27:03;7.60;;;6.90;;
3819;SDS011;1925;51.356;9.530;2022-08-01T03:29:29;7.70;;;7.10;;
3819;SDS011;1925;51.356;9.530;2022-08-01T03:31:57;8.50;;;7.03;;
3819;SDS011;1925;51.356;9.530;2022-08-01T03:34:24;8.03;;;7.00;;
3819;SDS011;1925;51.356;9.530;2022-08-01T03:36:55;8.97;;;6.73;;
3819;SDS011;1925;51.356;9.530;2022-08-01T03:39:22;8.77;;;7.50;;
3819;SDS011;1925;51.356;9.530;2022-08-01T03:41:52;7.80;;;7.10;;
3819;SDS011;1925;51.356;9.530;2022-08-01T03:44:22;8.47;;;7.10;;
3819;SDS011;1925;51.356;9.530;2022-08-01T03:46:54;8.30;;;7.60;;
3819;SDS011;1925;51.356;9.530;2022-08-01T03:49:29;7.50;;;6.90;;
3819;SDS011;1925;51.356;9.530;2022-08-01T03:51:55;12.73;;;8.57;;
3819;SDS011;1925;51.356;9.530;2022-08-01T03:54:24;9.20;;;7.80;;
3819;SDS011;1925;51.356;9.530;2022-08-01T03:56:50;10.83;;;7.97;;
3819;SDS011;1925;51.356;9.530;2022-08-01T03:59:17;8.97;;;6.80;;
3819;SDS011;1925;51.356;9.530;2022-08-01T04:01:44;8.70;;;5.00;;
3819;SDS011;1925;51.356;9.530;2022-08-01T04:04:10;6.97;;;4.77;;
3819;SDS011;1925;51.356;9.530;2022-08-01T04:06:37;9.03;;;4.27;;
3819;SDS011;1925;51.356;9.530;2022-08-01T04:09:04;5.40;;;4.40;;
3819;SDS011;1925;51.356;9.530;2022-08-01T04:11:30;4.00;;;3.37;;
3819;SDS011;1925;51.356;9.530;2022-08-01T04:13:56;4.70;;;3.57;;
3819;SDS011;1925;51.356;9.530;2022-08-01T04:16:22;6.07;;;4.00;;
3819;SDS011;1925;51.356;9.530;2022-08-01T04:18:48;4.90;;;3.23;;
3819;SDS011;1925;51.356;9.530;2022-08-01T04:21:14;3.70;;;3.37;;
3819;SDS011;1925;51.356;9.530;2022-08-01T04:23:43;3.77;;;3.47;;
3819;SDS011;1925;51.356;9.530;2022-08-01T04:26:10;6.10;;;2.30;;
3819;SDS011;1925;51.356;9.530;2022-08-01T04:28:36;5.00;;;3.80;;
3819;SDS011;1925;51.356;9.530;2022-08-01T04:31:05;9.00;;;4.83;;
3819;SDS011;1925;51.356;9.530;2022-08-01T04:33:34;5.67;;;3.60;;
3819;SDS011;1925;51.356;9.530;2022-08-01T04:36:03;6.30;;;3.90;;
3819;SDS011;1925;51.356;9.530;2022-08-01T04:38:31;4.80;;;4.33;;
3819;SDS011;1925;51.356;9.530;2022-08-01T04:40:57;4.20;;;3.80;;
3819;SDS011;1925;51.356;9.530;2022-08-01T04:43:23;5.00;;;3.63;;
3819;SDS011;1925;51.356;9.530;2022-08-01T04:45:50;7.20;;;4.30;;
3819;SDS011;1925;51.356;9.530;2022-08-01T04:48:17;5.17;;;4.00;;
3819;SDS011;1925;51.356;9.530;2022-08-01T04:50:44;7.03;;;3.93;;
3819;SDS011;1925;51.356;9.530;2022-08-01T04:53:14;6.60;;;3.87;;
3819;SDS011;1925;51.356;9.530;2022-08-01T04:55:42;4.17;;;3.87;;
3819;SDS011;1925;51.356;9.530;2022-08-01T04:58:08;4.23;;;3.87;;
3819;SDS011;1925;51.356;9.530;2022-08-01T05:00:34;4.87;;;4.00;;
3819;SDS011;1925;51.356;9.530;2022-08-01T05:03:00;3.57;;;3.27;;
3819;SDS011;1925;51.356;9.530;2022-08-01T05:05:26;5.50;;;3.60;;
3819;SDS011;1925;51.356;9.530;2022-08-01T05:07:52;7.43;;;3.80;;
3819;SDS011;1925;51.356;9.530;2022-08-01T05:10:18;3.23;;;2.93;;
3819;SDS011;1925;51.356;9.530;2022-08-01T05:12:44;3.83;;;3.53;;
3819;SDS011;1925;51.356;9.530;2022-08-01T05:15:11;4.87;;;3.30;;
3819;SDS011;1925;51.356;9.530;2022-08-01T05:17:37;4.00;;;3.70;;
3819;SDS011;1925;51.356;9.530;2022-08-01T05:20:03;5.00;;;3.37;;
3819;SDS011;1925;51.356;9.530;2022-08-01T05:22:31;4.10;;;3.70;;
3819;SDS011;1925;51.356;9.530;2022-08-01T05:24:57;4.53;;;3.10;;
3819;SDS011;1925;51.356;9.530;2022-08-01T05:27:24;5.57;;;4.53;;
3819;SDS011;1925;51.356;9.530;2022-08-01T05:29:50;5.50;;;3.30;;
3819;SDS011;1925;51.356;9.530;2022-08-01T05:32:16;4.13;;;3.70;;
3819;SDS011;1925;51.356;9.530;2022-08-01T05:34:42;5.07;;;3.73;;
3819;SDS011;1925;51.356;9.530;2022-08-01T05:37:08;6.10;;;4.43;;
3819;SDS011;1925;51.356;9.530;2022-08-01T05:39:34;4.23;;;3.93;;
3819;SDS011;1925;51.356;9.530;2022-08-01T05:42:01;5.00;;;3.50;;
3819;SDS011;1925;51.356;9.530;2022-08-01T05:44:27;3.90;;;3.50;;
3819;SDS011;1925;51.356;9.530;2022-08-01T05:46:53;5.30;;;3.47;;
3819;SDS011;1925;51.356;9.530;2022-08-01T05:49:19;4.00;;;3.50;;
3819;SDS011;1925;51.356;9.530;2022-08-01T05:51:45;4.67;;;4.23;;
3819;SDS011;1925;51.356;9.530;2022-08-01T05:54:11;4.50;;;4.10;;
3819;SDS011;1925;51.356;9.530;2022-08-01T05:56:37;6.40;;;4.20;;
3819;SDS011;1925;51.356;9.530;2022-08-01T05:59:03;10.23;;;4.53;;
3819;SDS011;1925;51.356;9.530;2022-08-01T06:01:29;7.53;;;4.87;;
3819;SDS011;1925;51.356;9.530;2022-08-01T06:03:55;5.17;;;3.93;;
3819;SDS011;1925;51.356;9.530;2022-08-01T06:06:21;7.37;;;4.20;;
3819;SDS011;1925;51.356;9.530;2022-08-01T06:08:47;5.30;;;4.00;;
3819;SDS011;1925;51.356;9.530;2022-08-01T06:11:13;4.93;;;3.73;;
3819;SDS011;1925;51.356;9.530;2022-08-01T06:13:39;5.10;;;3.60;;
3819;SDS011;1925;51.356;9.530;2022-08-01T06:16:05;5.40;;;4.90;;
3819;SDS011;1925;51.356;9.530;2022-08-01T06:18:31;5.50;;;4.23;;
3819;SDS011;1925;51.356;9.530;2022-08-01T06:20:57;3.60;;;3.30;;
3819;SDS011;1925;51.356;9.530;2022-08-01T06:23:23;6.00;;;4.00;;
3819;SDS011;1925;51.356;9.530;2022-08-01T06:25:53;6.30;;;3.97;;
3819;SDS011;1925;51.356;9.530;2022-08-01T06:28:19;8.93;;;4.43;;
3819;SDS011;1925;51.356;9.530;2022-08-01T06:30:45;4.73;;;4.20;;
3819;SDS011;1925;51.356;9.530;2022-08-01T06:33:11;3.80;;;3.47;;
3819;SDS011;1925;51.356;9.530;2022-08-01T06:35:37;4.97;;;3.80;;
3819;SDS011;1925;51.356;9.530;2022-08-01T06:38:03;6.07;;;4.30;;
3819;SDS011;1925;51.356;9.530;2022-08-01T06:40:29;7.40;;;4.20;;
3819;SDS011;1925;51.356;9.530;2022-08-01T06:42:55;6.87;;;4.17;;
3819;SDS011;1925;51.356;9.530;2022-08-01T06:45:21;3.97;;;3.63;;
3819;SDS011;1925;51.356;9.530;2022-08-01T06:47:47;4.20;;;3.90;;
3819;SDS011;1925;51.356;9.530;2022-08-01T06:50:14;6.10;;;3.90;;
3819;SDS011;1925;51.356;9.530;2022-08-01T06:52:40;4.30;;;3.90;;
3819;SDS011;1925;51.356;9.530;2022-08-01T06:55:06;10.63;;;4.50;;
3819;SDS011;1925;51.356;9.530;2022-08-01T06:57:32;4.23;;;3.47;;
3819;SDS011;1925;51.356;9.530;2022-08-01T07:00:00;5.27;;;4.30;;
3819;SDS011;1925;51.356;9.530;2022-08-01T07:02:26;9.97;;;4.03;;
3819;SDS011;1925;51.356;9.530;2022-08-01T07:04:52;3.67;;;3.37;;
3819;SDS011;1925;51.356;9.530;2022-08-01T07:07:18;3.10;;;2.90;;
3819;SDS011;1925;51.356;9.530;2022-08-01T07:09:44;2.97;;;2.20;;
3819;SDS011;1925;51.356;9.530;2022-08-01T07:12:10;5.27;;;2.50;;
3819;SDS011;1925;51.356;9.530;2022-08-01T07:14:36;2.40;;;2.20;;
3819;SDS011;1925;51.356;9.530;2022-08-01T07:17:02;4.30;;;2.87;;
3819;SDS011;1925;51.356;9.530;2022-08-01T07:19:28;3.97;;;2.40;;
3819;SDS011;1925;51.356;9.530;2022-08-01T07:21:54;4.20;;;2.60;;
3819;SDS011;1925;51.356;9.530;2022-08-01T07:24:20;2.07;;;1.97;;
3819;SDS011;1925;51.356;9.530;2022-08-01T07:26:46;3.40;;;2.10;;
3819;SDS011;1925;51.356;9.530;2022-08-01T07:29:13;3.10;;;2.60;;
3819;SDS011;1925;51.356;9.530;2022-08-01T07:31:39;2.97;;;2.67;;
3819;SDS011;1925;51.356;9.530;2022-08-01T07:34:05;3.90;;;2.43;;
3819;SDS011;1925;51.356;9.530;2022-08-01T07:36:31;3.60;;;3.03;;
3819;SDS011;1925;51.356;9.530;2022-08-01T07:38:57;4.53;;;2.50;;
3819;SDS011;1925;51.356;9.530;2022-08-01T07:41:23;2.20;;;2.00;;
3819;SDS011;1925;51.356;9.530;2022-08-01T07:43:49;4.00;;;2.80;;
3819;SDS011;1925;51.356;9.530;2022-08-01T07:46:15;3.00;;;2.33;;
3819;SDS011;1925;51.356;9.530;2022-08-01T07:48:41;2.70;;;1.80;;
3819;SDS011;1925;51.356;9.530;2022-08-01T07:51:07;3.70;;;2.37;;
3819;SDS011;1925;51.356;9.530;2022-08-01T07:53:35;2.57;;;2.03;;
3819;SDS011;1925;51.356;9.530;2022-08-01T07:56:01;2.03;;;1.90;;
3819;SDS011;1925;51.356;9.530;2022-08-01T07:58:27;1.90;;;1.70;;
3819;SDS011;1925;51.356;9.530;2022-08-01T08:00:53;2.07;;;1.97;;
3819;SDS011;1925;51.356;9.530;2022-08-01T08:03:19;2.03;;;1.70;;
3819;SDS011;1925;51.356;9.530;2022-08-01T08:05:45;7.20;;;2.00;;
3819;SDS011;1925;51.356;9.530;2022-08-01T08:08:11;2.10;;;1.90;;
3819;SDS011;1925;51.356;9.530;2022-08-01T08:10:39;2.83;;;2.50;;
3819;SDS011;1925;51.356;9.530;2022-08-01T08:13:05;2.40;;;2.20;;
3819;SDS011;1925;51.356;9.530;2022-08-01T08:15:31;1.63;;;1.53;;
3819;SDS011;1925;51.356;9.530;2022-08-01T08:17:57;2.03;;;1.50;;
3819;SDS011;1925;51.356;9.530;2022-08-01T08:20:23;1.97;;;1.87;;
3819;SDS011;1925;51.356;9.530;2022-08-01T08:22:54;1.73;;;1.40;;
3819;SDS011;1925;51.356;9.530;2022-08-01T08:25:20;1.77;;;1.67;;
3819;SDS011;1925;51.356;9.530;2022-08-01T08:27:47;1.40;;;1.30;;
3819;SDS011;1925;51.356;9.530;2022-08-01T08:30:13;1.50;;;1.40;;
3819;SDS011;1925;51.356;9.530;2022-08-01T08:32:39;1.60;;;1.50;;
3819;SDS011;1925;51.356;9.530;2022-08-01T08:35:05;1.67;;;1.33;;
3819;SDS011;1925;51.356;9.530;2022-08-01T08:37:32;2.37;;;2.17;;
3819;SDS011;1925;51.356;9.530;2022-08-01T08:39:59;2.53;;;1.43;;
3819;SDS011;1925;51.356;9.530;2022-08-01T08:42:25;2.63;;;2.10;;
3819;SDS011;1925;51.356;9.530;2022-08-01T08:44:51;1.80;;;1.70;;
3819;SDS011;1925;51.356;9.530;2022-08-01T08:47:19;1.80;;;1.70;;
3819;SDS011;1925;51.356;9.530;2022-08-01T08:49:45;2.33;;;2.13;;
3819;SDS011;1925;51.356;9.530;2022-08-01T08:52:12;2.17;;;1.97;;
3819;SDS011;1925;51.356;9.530;2022-08-01T08:54:38;3.43;;;2.10;;
3819;SDS011;1925;51.356;9.530;2022-08-01T08:57:06;2.63;;;1.80;;
3819;SDS011;1925;51.356;9.530;2022-08-01T08:59:32;3.97;;;2.13;;
3819;SDS011;1925;51.356;9.530;2022-08-01T09:01:59;2.33;;;2.00;;
3819;SDS011;1925;51.356;9.530;2022-08-01T09:04:25;3.77;;;2.40;;
3819;SDS011;1925;51.356;9.530;2022-08-01T09:06:51;1.80;;;1.70;;
3819;SDS011;1925;51.356;9.530;2022-08-01T09:09:17;1.80;;;1.70;;
3819;SDS011;1925;51.356;9.530;2022-08-01T09:11:44;3.10;;;2.03;;
3819;SDS011;1925;51.356;9.530;2022-08-01T09:16:36;2.40;;;1.97;;
3819;SDS011;1925;51.356;9.530;2022-08-01T09:19:13;2.90;;;2.60;;
3819;SDS011;1925;51.356;9.530;2022-08-01T09:21:40;2.50;;;2.30;;
3819;SDS011;1925;51.356;9.530;2022-08-01T09:24:13;4.70;;;2.63;;
3819;SDS011;1925;51.356;9.530;2022-08-01T09:26:40;4.53;;;2.70;;
3819;SDS011;1925;51.356;9.530;2022-08-01T09:29:06;2.10;;;1.90;;
3819;SDS011;1925;51.356;9.530;2022-08-01T09:31:39;3.30;;;1.93;;
3819;SDS011;1925;51.356;9.530;2022-08-01T09:34:06;2.43;;;2.00;;
3819;SDS011;1925;51.356;9.530;2022-08-01T09:36:45;2.40;;;1.70;;
3819;SDS011;1925;51.356;9.530;2022-08-01T09:39:13;2.00;;;1.80;;
3819;SDS011;1925;51.356;9.530;2022-08-01T09:41:40;2.50;;;1.70;;
3819;SDS011;1925;51.356;9.530;2022-08-01T09:44:06;2.00;;;1.67;;
3819;SDS011;1925;51.356;9.530;2022-08-01T09:46:32;1.70;;;1.60;;
3819;SDS011;1925;51.356;9.530;2022-08-01T09:48:58;1.80;;;1.70;;
3819;SDS011;1925;51.356;9.530;2022-08-01T09:51:38;1.83;;;1.73;;
3819;SDS011;1925;51.356;9.530;2022-08-01T09:54:04;2.23;;;2.03;;
3819;SDS011;1925;51.356;9.530;2022-08-01T09:56:37;1.80;;;1.70;;
3819;SDS011;1925;51.356;9.530;2022-08-01T09:59:04;2.40;;;1.90;;
3819;SDS011;1925;51.356;9.530;2022-08-01T10:01:46;7.00;;;2.57;;
3819;SDS011;1925;51.356;9.530;2022-08-01T10:04:19;2.27;;;1.47;;
3819;SDS011;1925;51.356;9.530;2022-08-01T10:06:47;1.30;;;1.20;;
3819;SDS011;1925;51.356;9.530;2022-08-01T10:09:28;1.97;;;1.33;;
3819;SDS011;1925;51.356;9.530;2022-08-01T10:11:54;1.50;;;1.40;;
3819;SDS011;1925;51.356;9.530;2022-08-01T10:14:25;1.53;;;1.43;;
3819;SDS011;1925;51.356;9.530;2022-08-01T10:16:52;1.30;;;1.20;;
3819;SDS011;1925;51.356;9.530;2022-08-01T10:19:18;1.37;;;1.27;;
3819;SDS011;1925;51.356;9.530;2022-08-01T10:21:46;3.00;;;1.57;;
3819;SDS011;1925;51.356;9.530;2022-08-01T10:24:14;2.33;;;1.53;;
3819;SDS011;1925;51.356;9.530;2022-08-01T10:26:40;2.00;;;1.90;;
3819;SDS011;1925;51.356;9.530;2022-08-01T10:29:07;1.70;;;1.60;;
3819;SDS011;1925;51.356;9.530;2022-08-01T10:31:33;1.60;;;1.50;;
3819;SDS011;1925;51.356;9.530;2022-08-01T10:33:59;1.50;;;1.40;;
3819;SDS011;1925;51.356;9.530;2022-08-01T10:36:25;1.63;;;1.20;;
3819;SDS011;1925;51.356;9.530;2022-08-01T10:38:53;1.83;;;1.10;;
3819;SDS011;1925;51.356;9.530;2022-08-01T10:41:20;1.60;;;1.50;;
3819;SDS011;1925;51.356;9.530;2022-08-01T10:43:46;2.80;;;1.37;;
3819;SDS011;1925;51.356;9.530;2022-08-01T10:46:13;3.10;;;1.50;;
3819;SDS011;1925;51.356;9.530;2022-08-01T10:48:48;1.57;;;1.27;;
3819;SDS011;1925;51.356;9.530;2022-08-01T10:51:15;1.47;;;1.20;;
3819;SDS011;1925;51.356;9.530;2022-08-01T10:53:45;2.87;;;1.00;;
3819;SDS011;1925;51.356;9.530;2022-08-01T10:56:11;1.20;;;0.70;;
3819;SDS011;1925;51.356;9.530;2022-08-01T10:58:38;1.57;;;0.90;;
3819;SDS011;1925;51.356;9.530;2022-08-01T11:01:15;3.07;;;0.43;;
3819;SDS011;1925;51.356;9.530;2022-08-01T11:03:43;1.10;;;0.77;;
3819;SDS011;1925;51.356;9.530;2022-08-01T11:06:16;3.80;;;0.80;;
3819;SDS011;1925;51.356;9.530;2022-08-01T11:08:42;2.03;;;0.83;;
3819;SDS011;1925;51.356;9.530;2022-08-01T11:11:15;0.77;;;0.60;;
3819;SDS011;1925;51.356;9.530;2022-08-01T11:16:27;1.40;;;0.70;;
3819;SDS011;1925;51.356;9.530;2022-08-01T11:18:53;0.90;;;0.70;;
3819;SDS011;1925;51.356;9.530;2022-08-01T11:21:19;2.00;;;0.60;;
3819;SDS011;1925;51.356;9.530;2022-08-01T11:23:49;2.00;;;0.53;;
3819;SDS011;1925;51.356;9.530;2022-08-01T11:26:18;0.73;;;0.57;;
3819;SDS011;1925;51.356;9.530;2022-08-01T11:28:45;2.23;;;0.90;;
3819;SDS011;1925;51.356;9.530;2022-08-01T11:38:36;1.00;;;0.80;;
3819;SDS011;1925;51.356;9.530;2022-08-01T11:41:22;0.80;;;0.70;;
3819;SDS011;1925;51.356;9.530;2022-08-01T11:46:44;0.90;;;0.73;;
3819;SDS011;1925;51.356;9.530;2022-08-01T11:52:00;1.00;;;0.70;;
3819;SDS011;1925;51.356;9.530;2022-08-01T11:54:30;0.80;;;0.63;;
3819;SDS011;1925;51.356;9.530;2022-08-01T11:56:57;0.70;;;0.60;;
3819;SDS011;1925;51.356;9.530;2022-08-01T11:59:23;1.20;;;0.97;;
3819;SDS011;1925;51.356;9.530;2022-08-01T12:01:49;2.73;;;0.70;;
3819;SDS011;1925;51.356;9.530;2022-08-01T12:04:15;1.30;;;1.03;;
3819;SDS011;1925;51.356;9.530;2022-08-01T12:06:41;3.57;;;0.90;;
3819;SDS011;1925;51.356;9.530;2022-08-01T12:11:43;0.80;;;0.70;;
3819;SDS011;1925;51.356;9.530;2022-08-01T12:14:09;0.80;;;0.67;;
3819;SDS011;1925;51.356;9.530;2022-08-01T12:16:36;1.63;;;0.63;;
3819;SDS011;1925;51.356;9.530;2022-08-01T12:19:02;1.97;;;0.90;;
3819;SDS011;1925;51.356;9.530;2022-08-01T12:21:28;0.80;;;0.80;;
3819;SDS011;1925;51.356;9.530;2022-08-01T12:23:59;1.00;;;0.90;;
3819;SDS011;1925;51.356;9.530;2022-08-01T12:26:39;1.20;;;0.90;;
3819;SDS011;1925;51.356;9.530;2022-08-01T12:29:05;1.93;;;0.90;;
3819;SDS011;1925;51.356;9.530;2022-08-01T12:31:31;0.87;;;0.70;;
3819;SDS011;1925;51.356;9.530;2022-08-01T12:33:57;2.00;;;0.80;;
3819;SDS011;1925;51.356;9.530;2022-08-01T12:36:27;3.00;;;1.40;;
3819;SDS011;1925;51.356;9.530;2022-08-01T12:38:54;0.97;;;0.90;;
3819;SDS011;1925;51.356;9.530;2022-08-01T12:41:21;3.10;;;0.80;;
3819;SDS011;1925;51.356;9.530;2022-08-01T12:43:47;1.27;;;1.00;;
3819;SDS011;1925;51.356;9.530;2022-08-01T12:46:13;1.80;;;1.17;;
3819;SDS011;1925;51.356;9.530;2022-08-01T12:48:42;1.87;;;0.83;;
3819;SDS011;1925;51.356;9.530;2022-08-01T12:51:08;5.23;;;1.03;;
3819;SDS011;1925;51.356;9.530;2022-08-01T12:53:36;1.40;;;1.30;;
3819;SDS011;1925;51.356;9.530;2022-08-01T12:56:02;2.63;;;0.80;;
3819;SDS011;1925;51.356;9.530;2022-08-01T12:58:32;0.90;;;0.80;;
3819;SDS011;1925;51.356;9.530;2022-08-01T13:01:05;8.13;;;1.33;;
3819;SDS011;1925;51.356;9.530;2022-08-01T13:03:31;1.00;;;0.90;;
3819;SDS011;1925;51.356;9.530;2022-08-01T13:05:57;4.70;;;1.20;;
3819;SDS011;1925;51.356;9.530;2022-08-01T13:08:25;3.53;;;1.10;;
3819;SDS011;1925;51.356;9.530;2022-08-01T13:13:37;2.20;;;1.10;;
3819;SDS011;1925;51.356;9.530;2022-08-01T13:16:03;1.77;;;1.00;;
3819;SDS011;1925;51.356;9.530;2022-08-01T13:18:30;1.40;;;1.27;;
3819;SDS011;1925;51.356;9.530;2022-08-01T13:21:13;1.57;;;1.30;;
3819;SDS011;1925;51.356;9.530;2022-08-01T13:23:40;1.00;;;0.90;;
3819;SDS011;1925;51.356;9.530;2022-08-01T13:26:07;1.20;;;1.10;;
3819;SDS011;1925;51.356;9.530;2022-08-01T13:28:33;2.33;;;1.30;;
3819;SDS011;1925;51.356;9.530;2022-08-01T13:31:05;1.20;;;1.10;;
3819;SDS011;1925;51.356;9.530;2022-08-01T13:36:07;1.73;;;0.83;;
3819;SDS011;1925;51.356;9.530;2022-08-01T13:38:33;2.60;;;1.20;;
3819;SDS011;1925;51.356;9.530;2022-08-01T13:41:17;1.10;;;1.00;;
3819;SDS011;1925;51.356;9.530;2022-08-01T13:43:43;1.20;;;1.10;;
3819;SDS011;1925;51.356;9.530;2022-08-01T13:46:09;1.40;;;1.10;;
3819;SDS011;1925;51.356;9.530;2022-08-01T13:48:35;2.40;;;1.63;;
3819;SDS011;1925;51.356;9.530;2022-08-01T13:51:01;1.50;;;1.40;;
3819;SDS011;1925;51.356;9.530;2022-08-01T13:53:27;1.60;;;1.20;;
3819;SDS011;1925;51.356;9.530;2022-08-01T13:55:53;1.10;;;1.00;;
3819;SDS011;1925;51.356;9.530;2022-08-01T13:58:19;1.07;;;0.97;;
3819;SDS011;1925;51.356;9.530;2022-08-01T14:00:45;1.67;;;0.90;;
3819;SDS011;1925;51.356;9.530;2022-08-01T14:03:12;1.30;;;1.20;;
3819;SDS011;1925;51.356;9.530;2022-08-01T14:05:38;1.03;;;0.93;;
3819;SDS011;1925;51.356;9.530;2022-08-01T14:08:05;1.10;;;1.00;;
3819;SDS011;1925;51.356;9.530;2022-08-01T14:10:31;1.20;;;1.10;;
3819;SDS011;1925;51.356;9.530;2022-08-01T14:12:57;1.90;;;1.20;;
3819;SDS011;1925;51.356;9.530;2022-08-01T14:15:23;1.00;;;0.90;;
3819;SDS011;1925;51.356;9.530;2022-08-01T14:17:49;3.13;;;1.20;;
3819;SDS011;1925;51.356;9.530;2022-08-01T14:20:15;1.07;;;1.00;;
3819;SDS011;1925;51.356;9.530;2022-08-01T14:22:44;1.00;;;0.90;;
3819;SDS011;1925;51.356;9.530;2022-08-01T14:25:10;0.90;;;0.83;;
3819;SDS011;1925;51.356;9.530;2022-08-01T14:27:37;1.80;;;1.53;;
3819;SDS011;1925;51.356;9.530;2022-08-01T14:30:05;1.10;;;1.00;;
3819;SDS011;1925;51.356;9.530;2022-08-01T14:32:31;4.40;;;1.00;;
3819;SDS011;1925;51.356;9.530;2022-08-01T14:34:58;0.90;;;0.83;;
3819;SDS011;1925;51.356;9.530;2022-08-01T14:37:24;1.30;;;1.20;;
3819;SDS011;1925;51.356;9.530;2022-08-01T14:39:50;1.40;;;1.30;;
3819;SDS011;1925;51.356;9.530;2022-08-01T14:42:16;3.67;;;1.30;;
3819;SDS011;1925;51.356;9.530;2022-08-01T14:44:42;2.30;;;1.00;;
3819;SDS011;1925;51.356;9.530;2022-08-01T14:47:08;1.40;;;1.30;;
3819;SDS011;1925;51.356;9.530;2022-08-01T14:49:34;1.83;;;1.10;;
3819;SDS011;1925;51.356;9.530;2022-08-01T14:52:00;1.23;;;0.87;;
3819;SDS011;1925;51.356;9.530;2022-08-01T14:54:27;5.63;;;1.50;;
3819;SDS011;1925;51.356;9.530;2022-08-01T14:56:53;1.80;;;0.93;;
3819;SDS011;1925;51.356;9.530;2022-08-01T14:59:19;1.83;;;1.20;;
3819;SDS011;1925;51.356;9.530;2022-08-01T15:01:45;1.30;;;1.13;;
3819;SDS011;1925;51.356;9.530;2022-08-01T15:04:11;1.10;;;1.00;;
3819;SDS011;1925;51.356;9.530;2022-08-01T15:06:37;1.20;;;1.10;;
3819;SDS011;1925;51.356;9.530;2022-08-01T15:09:03;5.80;;;0.90;;
3819;SDS011;1925;51.356;9.530;2022-08-01T15:11:30;3.13;;;1.13;;
3819;SDS011;1925;51.356;9.530;2022-08-01T15:13:56;1.43;;;0.93;;
3819;SDS011;1925;51.356;9.530;2022-08-01T15:16:40;1.00;;;0.80;;
3819;SDS011;1925;51.356;9.530;2022-08-01T15:19:07;3.13;;;1.13;;
3819;SDS011;1925;51.356;9.530;2022-08-01T15:21:33;1.37;;;0.80;;
3819;SDS011;1925;51.356;9.530;2022-08-01T15:23:59;2.13;;;0.80;;
3819;SDS011;1925;51.356;9.530;2022-08-01T15:26:25;1.10;;;0.90;;
3819;SDS011;1925;51.356;9.530;2022-08-01T15:28:53;1.63;;;1.10;;
3819;SDS011;1925;51.356;9.530;2022-08-01T15:31:19;1.00;;;0.80;;
3819;SDS011;1925;51.356;9.530;2022-08-01T15:33:45;1.37;;;0.80;;
3819;SDS011;1925;51.356;9.530;2022-08-01T15:36:10;0.90;;;0.80;;
3819;SDS011;1925;51.356;9.530;2022-08-01T15:38:36;1.03;;;0.70;;
3819;SDS011;1925;51.356;9.530;2022-08-01T15:41:02;1.47;;;0.70;;
3819;SDS011;1925;51.356;9.530;2022-08-01T15:43:28;1.30;;;1.07;;
3819;SDS011;1925;51.356;9.530;2022-08-01T15:45:54;1.07;;;0.97;;
3819;SDS011;1925;51.356;9.530;2022-08-01T15:48:20;0.90;;;0.80;;